KAX weather

Kalbarri Airport
Kalbarri, Western Australia, Australia

Public forecast

Using degrees Celsius for public forecast. Weather courtesy of forecast.io.

METAR (pilot weather report)

Closest report is Geraldton Airport, 70.3 nm (130.3 km) SSE. Retrieved 2019/03/25 23:30 UTC (11 minutes ago):

YGEL 252330Z 06014KT CAVOK 25/05 Q1014

TAF (pilot weather forecast)

Closest forecast is Geraldton Airport, 70.3 nm (130.3 km) SSE. Retrieved 2019/03/25 18:00 UTC (6 hours ago):

TAF YGEL 251643Z 2518/2618 13010KT CAVOK FM252100 07016G26KT CAVOK FM260400 11008KT CAVOK FM260700 20013KT CAVOK FM261200 16010KT CAVOK